Time;durP1;ratioP1;P1;durP2;ratioP2;P2;SDS_P1;SDS_P2;PMS_P1;PMS_P2;Temp;Humidity;BMP_temperature;BMP_pressure;BME280_temperature;BME280_humidity;BME280_pressure;Samples;Min_cycle;Max_cycle;Signal;HPM_P1;HPM_P2
2022/01/28 00:04:50;;;;;;;28.98;14.52;;;;;;;;;;5051685;28;20021;-62
2022/01/28 00:07:16;;;;;;;29.17;15.07;;;;;;;;;;5059576;28;20045;-65
2022/01/28 00:09:41;;;;;;;26.70;13.77;;;;;;;;;;5071537;28;20035;-62
2022/01/28 00:12:09;;;;;;;25.33;12.95;;;;;;;;;;5071137;28;20060;-62
2022/01/28 00:38:47;;;;;;;56.88;27.83;;;;;;;;;;5008851;28;20046;-63
2022/01/28 00:41:13;;;;;;;88.30;38.95;;;;;;;;;;5059820;28;20040;-65
2022/01/28 00:43:40;;;;;;;90.35;42.30;;;;;;;;;;5071146;28;20036;-63
2022/01/28 00:46:06;;;;;;;74.18;31.55;;;;;;;;;;5071398;28;20094;-63
2022/01/28 00:48:31;;;;;;;35.45;17.23;;;;;;;;;;5071164;28;20495;-62
2022/01/28 00:50:57;;;;;;;33.92;17.20;;;;;;;;;;5071092;28;20514;-62
2022/01/28 00:53:23;;;;;;;22.67;12.48;;;;;;;;;;5071068;28;20480;-63
2022/01/28 00:55:49;;;;;;;28.92;14.40;;;;;;;;;;5069663;28;20024;-63
2022/01/28 00:58:15;;;;;;;51.67;25.40;;;;;;;;;;5094813;28;20067;-62
2022/01/28 01:00:41;;;;;;;58.25;26.77;;;;;;;;;;5095217;28;20027;-63
2022/01/28 01:03:08;;;;;;;60.13;28.58;;;;;;;;;;5094678;28;20039;-65
2022/01/28 01:05:34;;;;;;;54.72;25.95;;;;;;;;;;5094650;28;20053;-66
2022/01/28 01:08:04;;;;;;;57.97;27.00;;;;;;;;;;5095332;28;20376;-70
2022/01/28 01:10:32;;;;;;;61.22;29.38;;;;;;;;;;5096918;28;20028;-66
2022/01/28 01:12:58;;;;;;;63.90;28.70;;;;;;;;;;5097064;28;20478;-64
2022/01/28 01:15:28;;;;;;;66.93;30.77;;;;;;;;;;5094938;28;20040;-63
2022/01/28 01:18:02;;;;;;;65.38;29.48;;;;;;;;;;5093986;28;20032;-62
2022/01/28 01:23:10;;;;;;;60.33;28.48;;;;;;;;;;5094625;28;20058;-67
2022/01/28 01:25:50;;;;;;;56.47;26.83;;;;;;;;;;5094425;28;20094;-63
2022/01/28 01:28:19;;;;;;;51.63;25.80;;;;;;;;;;5093975;28;20490;-64
2022/01/28 01:30:46;;;;;;;54.72;25.10;;;;;;;;;;5094070;28;20057;-63
2022/01/28 01:33:13;;;;;;;55.63;25.90;;;;;;;;;;5076380;28;20028;-63
2022/01/28 01:35:40;;;;;;;53.80;25.77;;;;;;;;;;5073925;28;20032;-63
2022/01/28 01:38:08;;;;;;;49.35;26.00;;;;;;;;;;5073686;28;20029;-63
2022/01/28 01:40:43;;;;;;;47.72;24.02;;;;;;;;;;5073917;28;20048;-62
2022/01/28 01:43:33;;;;;;;47.63;23.02;;;;;;;;;;5074045;28;20028;-62
2022/01/28 01:53:59;;;;;;;44.10;20.33;;;;;;;;;;5073705;28;20032;-62
2022/01/28 01:56:25;;;;;;;38.50;18.88;;;;;;;;;;5074444;28;20029;-62
2022/01/28 01:58:51;;;;;;;31.70;16.48;;;;;;;;;;5079364;28;20041;-62
2022/01/28 02:01:17;;;;;;;31.58;15.38;;;;;;;;;;5073595;28;20035;-63
2022/01/28 02:03:43;;;;;;;39.03;18.52;;;;;;;;;;5073425;28;20044;-61
2022/01/28 02:06:09;;;;;;;30.83;16.35;;;;;;;;;;5073617;28;20031;-64
2022/01/28 02:08:35;;;;;;;37.05;17.00;;;;;;;;;;5073028;28;20032;-63
2022/01/28 02:11:01;;;;;;;34.15;16.77;;;;;;;;;;5073233;28;20341;-63
2022/01/28 02:13:35;;;;;;;30.23;15.77;;;;;;;;;;5072852;28;20032;-62
2022/01/28 02:16:01;;;;;;;27.63;15.85;;;;;;;;;;5072986;28;20119;-63
2022/01/28 02:18:27;;;;;;;36.38;16.80;;;;;;;;;;5072983;28;20143;-64
2022/01/28 02:20:58;;;;;;;24.20;13.07;;;;;;;;;;5073120;28;20032;-64
2022/01/28 02:23:24;;;;;;;25.55;12.23;;;;;;;;;;5072939;28;20052;-61
2022/01/28 02:25:50;;;;;;;24.98;13.30;;;;;;;;;;5073122;28;20024;-64
2022/01/28 02:28:20;;;;;;;33.63;13.23;;;;;;;;;;5072731;28;20511;-62
2022/01/28 02:30:46;;;;;;;25.63;12.45;;;;;;;;;;5090988;28;20070;-63
2022/01/28 02:33:16;;;;;;;27.35;13.60;;;;;;;;;;5093495;28;20432;-63
2022/01/28 02:35:43;;;;;;;28.30;13.52;;;;;;;;;;5093318;28;20036;-63
2022/01/28 02:38:10;;;;;;;27.13;12.55;;;;;;;;;;5093095;28;20497;-62
2022/01/28 02:40:37;;;;;;;26.02;12.57;;;;;;;;;;5093321;28;20039;-63
2022/01/28 02:44:02;;;;;;;30.05;15.38;;;;;;;;;;5091652;28;20413;-63
2022/01/28 02:45:52;;;;;;;29.08;14.43;;;;;;;;;;5089125;28;20064;-65
2022/01/28 02:48:25;;;;;;;34.10;17.40;;;;;;;;;;5092928;28;20020;-63
2022/01/28 02:53:36;;;;;;;42.30;19.33;;;;;;;;;;5092821;28;20032;-64
2022/01/28 02:56:02;;;;;;;37.95;18.50;;;;;;;;;;5092900;28;20077;-62
2022/01/28 02:58:28;;;;;;;33.55;17.45;;;;;;;;;;5093793;28;20035;-64
2022/01/28 03:00:56;;;;;;;38.92;17.05;;;;;;;;;;5092430;28;20045;-62
2022/01/28 03:03:23;;;;;;;32.25;16.25;;;;;;;;;;5092517;28;20024;-62
2022/01/28 03:05:50;;;;;;;38.08;17.40;;;;;;;;;;5092736;28;20032;-68
2022/01/28 03:08:17;;;;;;;34.42;16.30;;;;;;;;;;5092562;28;20024;-70
2022/01/28 03:10:55;;;;;;;35.45;17.45;;;;;;;;;;5092415;28;20032;-65
2022/01/28 03:15:55;;;;;;;34.83;16.40;;;;;;;;;;5092670;28;20032;-67
2022/01/28 03:18:23;;;;;;;52.72;22.75;;;;;;;;;;5091343;28;20062;-69
2022/01/28 03:23:18;;;;;;;37.30;18.70;;;;;;;;;;5092503;28;20026;-70
2022/01/28 03:25:45;;;;;;;35.25;18.42;;;;;;;;;;5092275;28;20046;-66
2022/01/28 03:28:13;;;;;;;32.38;16.23;;;;;;;;;;5091806;28;20410;-65
2022/01/28 03:30:39;;;;;;;35.28;16.02;;;;;;;;;;5092041;28;20032;-63
2022/01/28 03:33:05;;;;;;;29.80;14.82;;;;;;;;;;5091718;28;20040;-65
2022/01/28 03:35:33;;;;;;;25.70;14.27;;;;;;;;;;5091768;28;20174;-71
2022/01/28 03:38:00;;;;;;;25.27;12.85;;;;;;;;;;5092044;28;20047;-67
2022/01/28 03:40:28;;;;;;;61.25;28.17;;;;;;;;;;5090557;28;20449;-68
2022/01/28 03:42:54;;;;;;;61.40;30.00;;;;;;;;;;5091618;28;20024;-64
2022/01/28 03:45:20;;;;;;;36.30;16.02;;;;;;;;;;5091515;28;20035;-65
2022/01/28 03:47:45;;;;;;;45.85;22.83;;;;;;;;;;5091088;28;20055;-69
2022/01/28 03:50:11;;;;;;;32.25;16.38;;;;;;;;;;5091465;28;20436;-69
2022/01/28 03:52:37;;;;;;;36.45;17.85;;;;;;;;;;5091548;28;20079;-68
2022/01/28 03:55:03;;;;;;;30.10;16.17;;;;;;;;;;5091494;28;20040;-65
2022/01/28 03:57:29;;;;;;;36.15;16.83;;;;;;;;;;5091545;28;20024;-64
2022/01/28 03:59:55;;;;;;;34.50;16.02;;;;;;;;;;5091900;28;20434;-69
2022/01/28 04:02:25;;;;;;;27.80;14.25;;;;;;;;;;5090744;28;20016;-64
2022/01/28 04:12:53;;;;;;;28.40;13.60;;;;;;;;;;5091334;28;20089;-64
2022/01/28 04:17:50;;;;;;;25.00;12.82;;;;;;;;;;5091779;28;20044;-64
2022/01/28 04:20:17;;;;;;;27.88;13.35;;;;;;;;;;5091745;28;20027;-63
2022/01/28 04:22:43;;;;;;;36.35;16.27;;;;;;;;;;5090802;28;20088;-65
2022/01/28 04:25:09;;;;;;;24.35;12.55;;;;;;;;;;5083174;28;20028;-62
2022/01/28 04:27:35;;;;;;;65.45;29.75;;;;;;;;;;5070829;28;20040;-65
2022/01/28 04:30:01;;;;;;;53.95;25.80;;;;;;;;;;5071322;28;20368;-62
2022/01/28 04:32:29;;;;;;;43.78;19.60;;;;;;;;;;5074612;28;20028;-63
2022/01/28 04:34:55;;;;;;;29.13;13.63;;;;;;;;;;5075125;28;20028;-64
2022/01/28 04:45:14;;;;;;;37.20;16.08;;;;;;;;;;5077497;28;20107;-63
2022/01/28 04:55:35;;;;;;;28.38;14.00;;;;;;;;;;5075320;28;20051;-64
2022/01/28 05:09:08;;;;;;;43.72;20.40;;;;;;;;;;5096161;28;20070;-67
2022/01/28 05:11:56;;;;;;;44.38;18.15;;;;;;;;;;5095369;28;20038;-66
2022/01/28 05:14:53;;;;;;;33.60;15.55;;;;;;;;;;5095161;28;20039;-67
2022/01/28 05:27:52;;;;;;;27.20;14.00;;;;;;;;;;5091033;28;20052;-71
2022/01/28 05:30:17;;;;;;;30.83;12.32;;;;;;;;;;5094377;28;20078;-66
2022/01/28 05:32:43;;;;;;;23.77;10.50;;;;;;;;;;5094384;28;20028;-69
2022/01/28 05:35:09;;;;;;;27.95;12.10;;;;;;;;;;5094846;28;20417;-69
2022/01/28 05:37:35;;;;;;;30.92;12.82;;;;;;;;;;5079563;28;20387;-72
2022/01/28 05:40:01;;;;;;;28.75;12.60;;;;;;;;;;5076919;28;20028;-72
2022/01/28 05:42:26;;;;;;;31.42;13.80;;;;;;;;;;5079971;28;20036;-72
2022/01/28 05:44:52;;;;;;;43.40;15.40;;;;;;;;;;5094249;28;20463;-70
2022/01/28 05:47:19;;;;;;;32.70;14.65;;;;;;;;;;5093979;28;20039;-72
2022/01/28 05:49:45;;;;;;;38.78;16.17;;;;;;;;;;5092977;28;20415;-72
2022/01/28 05:52:11;;;;;;;44.22;18.88;;;;;;;;;;5094303;28;20085;-67
2022/01/28 05:54:36;;;;;;;43.42;21.45;;;;;;;;;;5094242;28;20103;-68
2022/01/28 05:57:03;;;;;;;55.58;23.85;;;;;;;;;;5094090;28;20064;-71
2022/01/28 05:59:30;;;;;;;47.05;19.75;;;;;;;;;;5094263;28;20027;-71
2022/01/28 06:01:56;;;;;;;41.63;20.65;;;;;;;;;;5093943;28;20062;-74
2022/01/28 06:04:22;;;;;;;44.90;20.55;;;;;;;;;;5093469;28;20536;-69
2022/01/28 06:06:48;;;;;;;48.00;18.95;;;;;;;;;;5093138;28;20030;-67
2022/01/28 06:09:14;;;;;;;52.97;21.60;;;;;;;;;;5093816;28;20027;-69
2022/01/28 06:11:40;;;;;;;41.55;19.55;;;;;;;;;;5092471;28;20036;-69
2022/01/28 06:14:06;;;;;;;45.15;18.23;;;;;;;;;;5093632;28;20024;-69
2022/01/28 06:16:32;;;;;;;46.50;18.70;;;;;;;;;;5093457;28;20047;-68
2022/01/28 06:18:58;;;;;;;43.63;18.98;;;;;;;;;;5094226;28;20073;-69
2022/01/28 06:21:24;;;;;;;53.40;20.50;;;;;;;;;;5093920;28;20078;-69
2022/01/28 06:23:52;;;;;;;49.88;21.67;;;;;;;;;;5093824;28;20112;-70
2022/01/28 06:26:18;;;;;;;40.08;17.15;;;;;;;;;;5093785;28;20085;-69
2022/01/28 06:28:44;;;;;;;49.53;19.98;;;;;;;;;;5093340;28;20059;-69
2022/01/28 06:31:10;;;;;;;46.67;18.65;;;;;;;;;;5093838;28;20394;-68
2022/01/28 06:33:37;;;;;;;43.03;18.83;;;;;;;;;;5093826;28;20081;-72
2022/01/28 06:36:03;;;;;;;60.72;22.23;;;;;;;;;;5091385;28;20122;-68
2022/01/28 06:38:30;;;;;;;46.00;21.73;;;;;;;;;;5093200;28;20024;-69
2022/01/28 06:40:56;;;;;;;46.35;22.00;;;;;;;;;;5093279;28;20028;-69
2022/01/28 06:43:22;;;;;;;65.15;23.58;;;;;;;;;;5093324;28;20020;-69
2022/01/28 06:45:48;;;;;;;59.72;22.20;;;;;;;;;;5093020;28;20036;-69
2022/01/28 06:48:16;;;;;;;40.38;19.58;;;;;;;;;;5093168;28;20024;-70
2022/01/28 06:50:43;;;;;;;46.70;21.85;;;;;;;;;;5093387;28;20040;-68
2022/01/28 06:53:13;;;;;;;57.38;23.10;;;;;;;;;;5093152;28;20030;-69
2022/01/28 06:55:40;;;;;;;44.38;22.75;;;;;;;;;;5093102;28;20051;-68
2022/01/28 06:58:07;;;;;;;45.20;24.00;;;;;;;;;;5093151;28;20044;-68
2022/01/28 07:00:37;;;;;;;47.50;25.27;;;;;;;;;;5093335;28;20040;-69
2022/01/28 07:03:04;;;;;;;48.67;23.23;;;;;;;;;;5093373;28;20446;-69
2022/01/28 07:05:30;;;;;;;51.70;24.90;;;;;;;;;;5093052;28;20028;-69
2022/01/28 07:07:57;;;;;;;41.38;20.88;;;;;;;;;;5092802;28;20514;-69
2022/01/28 07:10:22;;;;;;;41.58;17.95;;;;;;;;;;5093147;28;20419;-71
2022/01/28 07:12:49;;;;;;;34.10;17.80;;;;;;;;;;5093158;28;20060;-74
2022/01/28 07:15:16;;;;;;;40.15;18.05;;;;;;;;;;5093276;28;20383;-69
2022/01/28 07:17:42;;;;;;;32.55;15.50;;;;;;;;;;5093235;28;20433;-73
2022/01/28 07:20:09;;;;;;;29.58;14.93;;;;;;;;;;5093123;28;20125;-71
2022/01/28 07:22:34;;;;;;;28.30;15.43;;;;;;;;;;5092827;28;20081;-74
2022/01/28 07:25:00;;;;;;;30.90;14.13;;;;;;;;;;5092506;28;20028;-69
2022/01/28 07:27:26;;;;;;;24.13;13.90;;;;;;;;;;5092220;28;20111;-71
2022/01/28 07:29:52;;;;;;;26.70;13.07;;;;;;;;;;5092663;28;20044;-74
2022/01/28 07:32:17;;;;;;;25.70;13.18;;;;;;;;;;5093102;28;20072;-75
2022/01/28 07:34:44;;;;;;;24.05;12.55;;;;;;;;;;5092935;28;20016;-74
2022/01/28 07:37:10;;;;;;;24.42;11.60;;;;;;;;;;5091332;28;20483;-69
2022/01/28 07:39:36;;;;;;;32.05;15.10;;;;;;;;;;5090790;28;20031;-71
2022/01/28 07:42:02;;;;;;;36.28;16.23;;;;;;;;;;5092384;28;20033;-71
2022/01/28 07:44:28;;;;;;;37.80;17.90;;;;;;;;;;5092250;28;20387;-69
2022/01/28 07:46:54;;;;;;;42.55;18.67;;;;;;;;;;5091697;28;20047;-70
2022/01/28 07:49:20;;;;;;;34.25;18.20;;;;;;;;;;5091070;28;20169;-69
2022/01/28 07:51:46;;;;;;;50.00;26.20;;;;;;;;;;5091959;28;20177;-69
2022/01/28 07:54:12;;;;;;;48.45;26.42;;;;;;;;;;5090353;28;20021;-71
2022/01/28 07:56:37;;;;;;;52.03;25.23;;;;;;;;;;5091848;28;20111;-70
2022/01/28 07:59:03;;;;;;;48.20;25.98;;;;;;;;;;5092332;28;20031;-70
2022/01/28 08:01:29;;;;;;;56.33;27.75;;;;;;;;;;5091965;28;20111;-69
2022/01/28 08:03:55;;;;;;;48.58;24.08;;;;;;;;;;5092145;28;20077;-71
2022/01/28 08:06:20;;;;;;;51.13;25.45;;;;;;;;;;5093466;28;20358;-70
2022/01/28 08:08:46;;;;;;;57.97;30.42;;;;;;;;;;5096073;28;20031;-70
2022/01/28 08:11:13;;;;;;;42.88;21.33;;;;;;;;;;5096228;28;20077;-70
2022/01/28 08:13:38;;;;;;;35.17;18.75;;;;;;;;;;5096389;28;20020;-71
2022/01/28 08:16:04;;;;;;;34.75;18.67;;;;;;;;;;5096540;28;20042;-70
2022/01/28 08:18:30;;;;;;;39.22;17.70;;;;;;;;;;5095962;28;20024;-71
2022/01/28 08:20:58;;;;;;;30.27;17.20;;;;;;;;;;5096077;28;20110;-71
2022/01/28 08:23:24;;;;;;;35.30;18.08;;;;;;;;;;5094926;28;20029;-68
2022/01/28 08:25:53;;;;;;;35.40;16.70;;;;;;;;;;5094379;28;20123;-71
2022/01/28 08:28:19;;;;;;;31.95;18.02;;;;;;;;;;5075050;28;20089;-69
2022/01/28 08:30:45;;;;;;;30.55;17.35;;;;;;;;;;5075332;28;20101;-70
2022/01/28 08:33:11;;;;;;;31.30;17.58;;;;;;;;;;5074909;28;20519;-70
2022/01/28 08:35:39;;;;;;;31.15;16.60;;;;;;;;;;5074970;28;20075;-68
2022/01/28 08:38:24;;;;;;;32.92;17.17;;;;;;;;;;5074712;28;20020;-69
2022/01/28 08:40:52;;;;;;;33.03;17.92;;;;;;;;;;5074878;28;20117;-69
2022/01/28 08:43:19;;;;;;;31.98;17.25;;;;;;;;;;5075063;28;20020;-68
2022/01/28 08:45:45;;;;;;;33.67;16.80;;;;;;;;;;5075205;28;20197;-70
2022/01/28 08:48:10;;;;;;;32.75;18.15;;;;;;;;;;5074863;28;20488;-70
2022/01/28 08:50:36;;;;;;;43.85;22.33;;;;;;;;;;5075422;28;20121;-69
2022/01/28 08:53:02;;;;;;;37.33;20.90;;;;;;;;;;5074727;28;20017;-70
2022/01/28 08:55:28;;;;;;;39.00;20.90;;;;;;;;;;5075052;28;20060;-69
2022/01/28 08:57:54;;;;;;;37.08;21.08;;;;;;;;;;5075263;28;20067;-70
2022/01/28 09:00:22;;;;;;;39.53;22.00;;;;;;;;;;5074642;28;20039;-69
2022/01/28 09:02:48;;;;;;;37.45;18.50;;;;;;;;;;5074469;28;20032;-69
2022/01/28 09:05:14;;;;;;;32.42;18.35;;;;;;;;;;5074940;28;20029;-69
2022/01/28 09:07:40;;;;;;;35.92;18.42;;;;;;;;;;5074559;28;20525;-69
2022/01/28 09:10:18;;;;;;;25.27;13.55;;;;;;;;;;5074776;28;20028;-71
2022/01/28 09:13:21;;;;;;;28.75;14.45;;;;;;;;;;5074713;28;20419;-72
2022/01/28 09:15:46;;;;;;;22.90;13.93;;;;;;;;;;5073676;28;20052;-74
2022/01/28 09:18:13;;;;;;;24.85;14.35;;;;;;;;;;5073305;28;20084;-74
2022/01/28 09:20:39;;;;;;;28.15;15.40;;;;;;;;;;5074494;28;20367;-72
2022/01/28 09:23:06;;;;;;;31.60;15.43;;;;;;;;;;5074477;28;20116;-72
2022/01/28 09:25:33;;;;;;;26.05;16.17;;;;;;;;;;5074518;28;20048;-72
2022/01/28 09:27:59;;;;;;;29.70;14.77;;;;;;;;;;5073906;28;20115;-74
2022/01/28 09:30:26;;;;;;;26.58;14.90;;;;;;;;;;5072560;28;20033;-72
2022/01/28 09:32:52;;;;;;;28.30;15.07;;;;;;;;;;5074519;28;20067;-74
2022/01/28 09:35:18;;;;;;;34.70;18.85;;;;;;;;;;5074534;28;20033;-72
2022/01/28 09:37:44;;;;;;;34.50;18.73;;;;;;;;;;5073142;28;20032;-71
2022/01/28 09:40:11;;;;;;;42.72;21.60;;;;;;;;;;5090044;28;20054;-69
2022/01/28 09:42:41;;;;;;;37.40;18.73;;;;;;;;;;5094802;28;20439;-71
2022/01/28 09:45:09;;;;;;;34.00;18.73;;;;;;;;;;5094517;28;20032;-70
2022/01/28 09:47:36;;;;;;;35.58;17.92;;;;;;;;;;5094287;28;20112;-70
2022/01/28 09:50:06;;;;;;;31.25;16.77;;;;;;;;;;5094395;28;20108;-70
2022/01/28 09:52:33;;;;;;;33.13;17.10;;;;;;;;;;5093905;28;20111;-71
2022/01/28 09:54:58;;;;;;;29.13;16.73;;;;;;;;;;5093850;28;20020;-69
2022/01/28 09:57:24;;;;;;;35.97;18.83;;;;;;;;;;5093953;28;20032;-69
2022/01/28 09:59:50;;;;;;;30.52;17.50;;;;;;;;;;5093503;28;20024;-71
2022/01/28 10:02:16;;;;;;;32.22;16.65;;;;;;;;;;5094088;28;20024;-71
2022/01/28 10:04:42;;;;;;;26.75;16.05;;;;;;;;;;5093978;28;20120;-68
2022/01/28 10:07:16;;;;;;;38.90;17.52;;;;;;;;;;5093326;28;20035;-70
2022/01/28 10:09:56;;;;;;;32.30;17.15;;;;;;;;;;5094001;28;20032;-70
2022/01/28 10:12:50;;;;;;;27.65;15.02;;;;;;;;;;5093942;28;20089;-71
2022/01/28 10:15:28;;;;;;;29.75;16.08;;;;;;;;;;5093029;28;20107;-71
2022/01/28 10:17:56;;;;;;;32.88;17.08;;;;;;;;;;5093279;28;20043;-68
2022/01/28 10:20:23;;;;;;;29.77;17.05;;;;;;;;;;5092881;28;20028;-70
2022/01/28 10:23:07;;;;;;;30.75;16.35;;;;;;;;;;5092698;28;20142;-70
2022/01/28 10:25:36;;;;;;;26.58;15.00;;;;;;;;;;5091990;28;20072;-70
2022/01/28 10:28:04;;;;;;;26.92;15.95;;;;;;;;;;5092261;28;20040;-71
2022/01/28 10:30:35;;;;;;;33.85;16.52;;;;;;;;;;5091662;28;20180;-70
2022/01/28 10:33:10;;;;;;;41.33;17.73;;;;;;;;;;5093423;28;20540;-69
2022/01/28 10:35:36;;;;;;;32.38;17.13;;;;;;;;;;5093402;28;20036;-68
2022/01/28 10:38:02;;;;;;;31.73;17.27;;;;;;;;;;5092894;28;20034;-71
2022/01/28 10:40:28;;;;;;;31.88;17.85;;;;;;;;;;5092927;28;20416;-70
2022/01/28 10:42:54;;;;;;;33.58;16.58;;;;;;;;;;5092491;28;20127;-71
2022/01/28 10:45:28;;;;;;;30.63;17.23;;;;;;;;;;5092520;28;20028;-70
2022/01/28 10:47:55;;;;;;;30.40;17.55;;;;;;;;;;5093050;28;20032;-71
2022/01/28 10:50:32;;;;;;;50.67;21.23;;;;;;;;;;5092370;28;20107;-70
2022/01/28 10:53:16;;;;;;;42.88;19.83;;;;;;;;;;5092863;28;20032;-70
2022/01/28 10:55:44;;;;;;;;;;;;;;;;;;5093680;28;20112;-70
2022/01/28 10:58:16;;;;;;;23.10;13.52;;;;;;;;;;5092856;28;19934;-70
2022/01/28 11:00:47;;;;;;;27.92;14.77;;;;;;;;;;5093293;28;20455;-72
2022/01/28 11:03:16;;;;;;;26.70;15.93;;;;;;;;;;5092701;28;20035;-70
2022/01/28 11:05:46;;;;;;;30.50;15.73;;;;;;;;;;5092643;28;20043;-70
2022/01/28 11:08:13;;;;;;;36.08;16.42;;;;;;;;;;5092086;28;20097;-76
2022/01/28 11:10:41;;;;;;;26.95;14.82;;;;;;;;;;5092931;28;20032;-73
2022/01/28 11:13:07;;;;;;;24.10;13.95;;;;;;;;;;5091968;28;20055;-70
2022/01/28 11:15:34;;;;;;;26.08;13.90;;;;;;;;;;5092591;28;20032;-74
2022/01/28 11:18:03;;;;;;;25.40;14.48;;;;;;;;;;5092745;28;20028;-70
2022/01/28 11:20:34;;;;;;;27.42;14.10;;;;;;;;;;5092869;28;20016;-71
2022/01/28 11:23:33;;;;;;;23.90;13.85;;;;;;;;;;5092664;28;20402;-69
2022/01/28 11:26:27;;;;;;;23.70;13.27;;;;;;;;;;5092482;28;20028;-72
2022/01/28 11:28:56;;;;;;;23.55;12.55;;;;;;;;;;5091841;28;20056;-69
2022/01/28 11:31:50;;;;;;;22.23;12.85;;;;;;;;;;5092426;28;20031;-72
2022/01/28 11:34:30;;;;;;;20.75;12.02;;;;;;;;;;5092362;28;20039;-71
2022/01/28 11:36:58;;;;;;;21.95;13.30;;;;;;;;;;5092181;28;20032;-68
2022/01/28 11:39:35;;;;;;;24.52;12.93;;;;;;;;;;5092481;28;20028;-69
2022/01/28 11:42:21;;;;;;;25.92;14.20;;;;;;;;;;5091611;28;20054;-70
2022/01/28 11:44:59;;;;;;;21.52;13.45;;;;;;;;;;5077900;28;20063;-72
2022/01/28 11:47:40;;;;;;;22.67;13.45;;;;;;;;;;5092443;28;20048;-72
2022/01/28 11:50:12;;;;;;;22.00;13.65;;;;;;;;;;5092624;28;20040;-72
2022/01/28 11:52:47;;;;;;;23.23;14.20;;;;;;;;;;5092286;28;20082;-71
2022/01/28 11:55:25;;;;;;;29.17;14.75;;;;;;;;;;5092129;28;20097;-76
2022/01/28 11:58:06;;;;;;;23.38;14.02;;;;;;;;;;5091946;28;20085;-72
2022/01/28 12:00:39;;;;;;;28.25;14.55;;;;;;;;;;5092045;28;20352;-72
2022/01/28 12:03:22;;;;;;;27.00;14.93;;;;;;;;;;5092006;28;20126;-71
2022/01/28 12:05:48;;;;;;;31.27;15.48;;;;;;;;;;5092059;28;20101;-71
2022/01/28 12:08:15;;;;;;;22.83;13.05;;;;;;;;;;5091822;28;20028;-70
2022/01/28 12:10:43;;;;;;;22.13;12.85;;;;;;;;;;5091709;28;20044;-69
2022/01/28 12:13:16;;;;;;;22.58;13.57;;;;;;;;;;5086356;28;20021;-71
2022/01/28 12:16:13;;;;;;;27.10;13.70;;;;;;;;;;5089436;28;20523;-71
2022/01/28 12:18:45;;;;;;;22.92;12.90;;;;;;;;;;5078411;28;20479;-69
2022/01/28 12:21:26;;;;;;;25.48;12.10;;;;;;;;;;5085168;28;20367;-70
2022/01/28 12:23:55;;;;;;;22.77;11.68;;;;;;;;;;5091510;28;20040;-68
2022/01/28 12:26:21;;;;;;;19.92;11.63;;;;;;;;;;5076110;28;20700;-71
2022/01/28 12:28:53;;;;;;;21.20;12.20;;;;;;;;;;5071150;28;20052;-70
2022/01/28 12:31:27;;;;;;;22.65;12.43;;;;;;;;;;5071905;28;20434;-70
2022/01/28 12:34:00;;;;;;;25.58;11.95;;;;;;;;;;5088874;28;20020;-70
2022/01/28 12:36:30;;;;;;;18.93;10.60;;;;;;;;;;5081914;28;20090;-73
2022/01/28 12:39:09;;;;;;;22.33;11.15;;;;;;;;;;5069255;28;20550;-72
2022/01/28 12:41:49;;;;;;;18.95;11.40;;;;;;;;;;5086653;28;20111;-72
2022/01/28 12:44:16;;;;;;;18.98;10.95;;;;;;;;;;5090900;28;20032;-74
2022/01/28 12:46:50;;;;;;;19.88;9.82;;;;;;;;;;5106293;28;20084;-73
2022/01/28 12:49:16;;;;;;;;;;;;;;;;;;5111087;28;20110;-73
2022/01/28 12:51:42;;;;;;;18.23;10.20;;;;;;;;;;5083147;28;19916;-73
2022/01/28 12:54:08;;;;;;;24.73;10.90;;;;;;;;;;5089710;28;20032;-74
2022/01/28 12:56:40;;;;;;;15.02;9.10;;;;;;;;;;5093884;28;20367;-72
2022/01/28 12:59:07;;;;;;;16.75;9.52;;;;;;;;;;5094860;28;20120;-70
2022/01/28 13:01:32;;;;;;;17.75;9.20;;;;;;;;;;5091804;28;20091;-73
2022/01/28 13:04:17;;;;;;;19.92;10.00;;;;;;;;;;5087738;28;20086;-70
2022/01/28 13:09:19;;;;;;;14.32;8.73;;;;;;;;;;5085053;28;20501;-71
2022/01/28 13:11:46;;;;;;;18.85;11.35;;;;;;;;;;5082036;28;20032;-70
2022/01/28 13:14:13;;;;;;;18.45;10.73;;;;;;;;;;5093858;28;20031;-75
2022/01/28 13:16:45;;;;;;;16.75;10.63;;;;;;;;;;5092216;28;20071;-73
2022/01/28 13:19:13;;;;;;;20.02;11.25;;;;;;;;;;5074187;28;20036;-70
2022/01/28 13:21:41;;;;;;;17.88;10.73;;;;;;;;;;5075423;28;20024;-71
2022/01/28 13:24:08;;;;;;;18.70;10.60;;;;;;;;;;5073439;28;20339;-70
2022/01/28 13:26:36;;;;;;;23.77;10.75;;;;;;;;;;5073912;28;20035;-71
2022/01/28 13:29:07;;;;;;;13.93;8.82;;;;;;;;;;5073346;28;20064;-70
2022/01/28 13:31:34;;;;;;;19.15;9.32;;;;;;;;;;5074186;28;20071;-71
2022/01/28 13:34:00;;;;;;;24.35;10.35;;;;;;;;;;5074800;28;20031;-70
2022/01/28 13:36:26;;;;;;;19.25;11.02;;;;;;;;;;5074368;28;20033;-70
2022/01/28 13:38:52;;;;;;;18.92;10.35;;;;;;;;;;5074202;28;20124;-70
2022/01/28 13:41:28;;;;;;;16.65;9.40;;;;;;;;;;5073984;28;20029;-69
2022/01/28 13:43:59;;;;;;;18.73;9.77;;;;;;;;;;5072192;28;20060;-70
2022/01/28 13:46:32;;;;;;;17.83;9.18;;;;;;;;;;5073820;28;20043;-71
2022/01/28 13:48:57;;;;;;;14.50;8.63;;;;;;;;;;5073315;28;20048;-69
2022/01/28 13:51:25;;;;;;;11.93;7.57;;;;;;;;;;5073787;28;20471;-71
2022/01/28 13:56:33;;;;;;;19.23;8.93;;;;;;;;;;5074371;28;20029;-70
2022/01/28 13:58:59;;;;;;;20.88;10.45;;;;;;;;;;5072854;28;20075;-70
2022/01/28 14:01:27;;;;;;;18.40;8.95;;;;;;;;;;5074350;28;20052;-70
2022/01/28 14:03:55;;;;;;;15.98;9.77;;;;;;;;;;5073461;28;20471;-70
2022/01/28 14:06:27;;;;;;;14.10;9.32;;;;;;;;;;5073865;28;20536;-70
2022/01/28 14:09:09;;;;;;;14.95;8.63;;;;;;;;;;5092924;28;20036;-70
2022/01/28 14:11:39;;;;;;;19.30;11.43;;;;;;;;;;5093837;28;20410;-69
2022/01/28 14:14:12;;;;;;;17.95;10.68;;;;;;;;;;5093446;28;20055;-70
2022/01/28 14:16:37;;;;;;;15.87;9.23;;;;;;;;;;5093118;28;20077;-70
2022/01/28 14:19:04;;;;;;;16.75;9.93;;;;;;;;;;5092998;28;20032;-70
2022/01/28 14:21:29;;;;;;;17.25;9.52;;;;;;;;;;5093388;28;20044;-69
2022/01/28 14:23:55;;;;;;;18.83;10.57;;;;;;;;;;5093122;28;20036;-70
2022/01/28 14:26:21;;;;;;;16.48;11.63;;;;;;;;;;5092621;28;20510;-70
2022/01/28 14:31:16;;;;;;;20.73;11.95;;;;;;;;;;5091702;28;20509;-70
2022/01/28 14:33:45;;;;;;;16.95;10.40;;;;;;;;;;5090741;28;20024;-70
2022/01/28 14:36:11;;;;;;;27.42;13.98;;;;;;;;;;5091463;28;20054;-70
2022/01/28 14:38:36;;;;;;;23.58;13.25;;;;;;;;;;5093142;28;20467;-70
2022/01/28 14:41:02;;;;;;;25.80;15.52;;;;;;;;;;5092832;28;20046;-71
2022/01/28 14:43:28;;;;;;;28.58;14.73;;;;;;;;;;5091417;28;20105;-70
2022/01/28 14:45:54;;;;;;;28.77;15.77;;;;;;;;;;5093073;28;20086;-70
2022/01/28 14:48:21;;;;;;;22.48;15.10;;;;;;;;;;5094114;28;20024;-73
2022/01/28 14:50:48;;;;;;;26.10;13.95;;;;;;;;;;5092903;28;20040;-71
2022/01/28 14:53:14;;;;;;;29.13;13.95;;;;;;;;;;5092515;28;20016;-71
2022/01/28 14:55:42;;;;;;;20.02;12.80;;;;;;;;;;5092326;28;20040;-71
2022/01/28 14:58:08;;;;;;;24.52;13.07;;;;;;;;;;5091333;28;20510;-72
2022/01/28 15:00:33;;;;;;;22.17;12.45;;;;;;;;;;5090426;28;20106;-70
2022/01/28 15:02:59;;;;;;;23.00;13.60;;;;;;;;;;5092007;28;20024;-69
2022/01/28 15:05:28;;;;;;;25.00;12.82;;;;;;;;;;5091859;28;20036;-69
2022/01/28 15:07:53;;;;;;;18.50;12.25;;;;;;;;;;5092292;28;20024;-71
2022/01/28 15:10:26;;;;;;;19.60;10.73;;;;;;;;;;5091726;28;20343;-70
2022/01/28 15:12:53;;;;;;;16.42;8.88;;;;;;;;;;5077655;28;20403;-70
2022/01/28 15:15:19;;;;;;;18.33;10.63;;;;;;;;;;5071110;28;20031;-71
2022/01/28 15:17:44;;;;;;;16.75;9.32;;;;;;;;;;5071135;28;20032;-70
2022/01/28 15:20:11;;;;;;;20.05;11.55;;;;;;;;;;5071132;28;20040;-71
2022/01/28 15:22:37;;;;;;;20.35;11.90;;;;;;;;;;5080011;28;20035;-72
2022/01/28 15:25:04;;;;;;;21.40;11.75;;;;;;;;;;5070884;28;20425;-70
2022/01/28 15:27:34;;;;;;;29.58;12.43;;;;;;;;;;5070523;28;20418;-71
2022/01/28 15:30:07;;;;;;;25.30;14.00;;;;;;;;;;5071310;28;20500;-70
2022/01/28 15:38:04;;;;;;;24.08;12.70;;;;;;;;;;5044904;28;20029;-70
2022/01/28 15:40:29;;;;;;;28.70;14.50;;;;;;;;;;5067571;28;20040;-69
2022/01/28 15:43:00;;;;;;;34.67;15.45;;;;;;;;;;5090722;28;20142;-70
2022/01/28 15:45:31;;;;;;;25.77;12.45;;;;;;;;;;5090990;28;20115;-71
2022/01/28 15:47:58;;;;;;;23.10;13.70;;;;;;;;;;5091540;28;20035;-71
2022/01/28 15:50:25;;;;;;;22.25;12.63;;;;;;;;;;5090436;28;20192;-70
2022/01/28 15:52:53;;;;;;;35.65;17.67;;;;;;;;;;5090620;28;20036;-70
2022/01/28 15:55:19;;;;;;;49.38;21.85;;;;;;;;;;5090700;28;20074;-70
2022/01/28 15:57:44;;;;;;;31.92;16.98;;;;;;;;;;5083249;28;20055;-70
2022/01/28 16:00:11;;;;;;;42.63;21.73;;;;;;;;;;5090686;28;20107;-69
2022/01/28 16:02:43;;;;;;;46.00;21.50;;;;;;;;;;5090556;28;20491;-71
2022/01/28 16:05:09;;;;;;;37.97;19.10;;;;;;;;;;5079619;28;20086;-69
2022/01/28 16:07:34;;;;;;;51.35;20.85;;;;;;;;;;5070448;28;20074;-69
2022/01/28 16:10:11;;;;;;;24.73;13.50;;;;;;;;;;5070172;28;20471;-70
2022/01/28 16:17:46;;;;;;;32.78;17.83;;;;;;;;;;5069544;28;20028;-70
2022/01/28 16:20:11;;;;;;;31.15;15.60;;;;;;;;;;5070876;28;20402;-70